createdAt,value
2023-03-27T00:04:25.008Z,99846.53
2023-03-27T00:09:29.148Z,99859.31
2023-03-27T00:14:32.693Z,99880.31
2023-03-27T00:19:35.593Z,99887.38
2023-03-27T00:24:37.234Z,99891.19
2023-03-27T00:29:40.342Z,99910.25
2023-03-27T00:34:41.969Z,99932.13
2023-03-27T00:39:43.680Z,99949.88
2023-03-27T00:44:46.723Z,99958.50
2023-03-27T00:49:50.604Z,99973.31
2023-03-27T00:54:52.290Z,99973.94
2023-03-27T00:59:57.360Z,99987.34
2023-03-27T01:04:59.106Z,99996.53
2023-03-27T01:10:00.908Z,100009.78
2023-03-27T01:15:28.205Z,100018.06
2023-03-27T01:21:03.985Z,100045.88
2023-03-27T01:26:46.225Z,100040.47
2023-03-27T01:32:07.119Z,100066.28
2023-03-27T01:37:33.338Z,100062.41
2023-03-27T01:42:39.266Z,100077.91
2023-03-27T01:47:46.394Z,100086.59
2023-03-27T01:52:53.393Z,100078.56
2023-03-27T01:58:00.238Z,100106.06
2023-03-27T02:03:08.595Z,100102.94
2023-03-27T02:08:15.596Z,100117.88
2023-03-27T02:13:25.590Z,100129.63
2023-03-27T02:18:32.444Z,100137.50
2023-03-27T02:23:34.088Z,100151.78
2023-03-27T02:28:48.596Z,100150.59
2023-03-27T02:34:08.933Z,100159.06
2023-03-27T02:39:17.336Z,100172.22
2023-03-27T02:44:32.163Z,100185.53
2023-03-27T02:49:39.927Z,100193.22
2023-03-27T02:54:47.361Z,100205.00
2023-03-27T02:59:54.377Z,100209.34
2023-03-27T03:05:01.562Z,100209.00
2023-03-27T03:10:03.767Z,100216.22
2023-03-27T03:15:08.442Z,100237.53
2023-03-27T03:20:11.048Z,100250.16
2023-03-27T03:25:12.948Z,100264.44
2023-03-27T03:30:16.794Z,100278.47
2023-03-27T03:35:19.329Z,100281.25
2023-03-27T03:40:21.266Z,100285.88
2023-03-27T03:45:24.374Z,100294.28
2023-03-27T03:50:26.157Z,100300.97
2023-03-27T03:55:27.829Z,100306.91
2023-03-27T04:00:31.561Z,100317.69
2023-03-27T04:05:33.288Z,100333.91
2023-03-27T04:10:36.520Z,100344.19
2023-03-27T04:15:39.608Z,100364.19
2023-03-27T04:20:41.316Z,100365.50
2023-03-27T04:25:43.044Z,100375.59
2023-03-27T04:30:46.229Z,100385.97
2023-03-27T04:36:06.935Z,100402.03
2023-03-27T04:41:09.251Z,100404.94
2023-03-27T04:46:12.326Z,100413.63
2023-03-27T04:51:13.968Z,100416.88
2023-03-27T04:56:15.646Z,100436.56
2023-03-27T05:01:30.612Z,100456.03
2023-03-27T05:06:32.217Z,100452.16
2023-03-27T05:11:34.044Z,100464.75
2023-03-27T05:16:37.140Z,100471.72
2023-03-27T05:21:39.243Z,100488.91
2023-03-27T05:26:41.418Z,100493.72
2023-03-27T05:31:44.579Z,100499.84
2023-03-27T05:36:46.469Z,100517.31
2023-03-27T05:41:48.105Z,100523.13
2023-03-27T05:46:51.240Z,100532.91
2023-03-27T05:51:52.899Z,100540.38
2023-03-27T05:56:54.675Z,100547.06
2023-03-27T06:01:57.806Z,100554.91
2023-03-27T06:06:59.430Z,100557.31
2023-03-27T06:12:01.047Z,100573.03
2023-03-27T06:17:04.046Z,100581.00
2023-03-27T06:22:05.715Z,100593.09
2023-03-27T06:27:09.151Z,100595.25
2023-03-27T06:32:14.370Z,100599.28
2023-03-27T06:37:15.989Z,100616.06
2023-03-27T06:42:17.968Z,100626.28
2023-03-27T06:47:21.062Z,100639.31
2023-03-27T06:52:22.943Z,100641.28
2023-03-27T06:57:24.616Z,100654.72
2023-03-27T07:02:27.751Z,100667.97
2023-03-27T07:07:29.449Z,100674.53
2023-03-27T07:12:31.137Z,100684.03
2023-03-27T07:17:45.894Z,100685.22
2023-03-27T07:22:50.338Z,100700.16
2023-03-27T07:28:38.582Z,100703.31
2023-03-27T07:33:42.696Z,100701.00
2023-03-27T07:38:46.383Z,100711.41
2023-03-27T07:43:54.368Z,100710.66
2023-03-27T07:48:57.825Z,100719.72
2023-03-27T07:53:59.518Z,100723.44
2023-03-27T07:59:01.416Z,100721.59
2023-03-27T08:04:04.861Z,100744.91
2023-03-27T08:09:06.817Z,100746.88
2023-03-27T08:14:08.568Z,100747.59
2023-03-27T08:19:36.854Z,100747.88
2023-03-27T08:25:07.231Z,100752.84
2023-03-27T08:32:02.500Z,100748.75
2023-03-27T08:35:56.292Z,100755.56
2023-03-27T08:41:06.907Z,100745.97
2023-03-27T08:46:16.681Z,100749.72
2023-03-27T08:51:25.326Z,100758.34
2023-03-27T08:56:27.675Z,100754.31
2023-03-27T09:01:36.842Z,100782.50
2023-03-27T09:07:26.181Z,100798.59
2023-03-27T09:13:00.116Z,100820.97
2023-03-27T09:18:06.619Z,100821.66
2023-03-27T09:23:15.759Z,100830.41
2023-03-27T09:28:21.209Z,100829.34
2023-03-27T09:33:23.692Z,100826.59
2023-03-27T09:38:35.658Z,100825.41
2023-03-27T09:44:05.199Z,100817.81
2023-03-27T09:49:36.881Z,100827.72
2023-03-27T09:54:53.306Z,100834.88
2023-03-27T09:59:59.814Z,100835.81
2023-03-27T10:05:04.130Z,100846.84
2023-03-27T10:10:21.712Z,100826.44
2023-03-27T10:15:34.598Z,100819.44
2023-03-27T10:20:37.774Z,100825.38
2023-03-27T10:25:49.873Z,100826.63
2023-03-27T10:30:58.737Z,100832.06
2023-03-27T10:36:33.001Z,100837.34
2023-03-27T10:42:17.233Z,100835.34
2023-03-27T10:47:25.958Z,100835.13
2023-03-27T10:52:35.816Z,100839.69
2023-03-27T10:57:41.617Z,100838.44
2023-03-27T11:02:49.469Z,100844.41
2023-03-27T11:08:02.042Z,100846.16
2023-03-27T11:13:13.550Z,100847.94
2023-03-27T11:18:22.141Z,100855.97
2023-03-27T11:23:30.384Z,100878.16
2023-03-27T11:28:46.718Z,100934.84
2023-03-27T11:34:09.945Z,100933.16
2023-03-27T11:39:28.822Z,100949.94
2023-03-27T11:44:33.151Z,100935.47
2023-03-27T11:49:52.953Z,100927.56
2023-03-27T11:55:10.572Z,100928.22
2023-03-27T12:00:26.538Z,100924.16
2023-03-27T12:05:33.893Z,100933.34
2023-03-27T12:10:38.148Z,100923.63
2023-03-27T12:15:54.711Z,100920.25
2023-03-27T12:21:09.728Z,100908.63
2023-03-27T12:26:34.930Z,100897.63
2023-03-27T12:31:53.084Z,100896.22
2023-03-27T12:36:55.967Z,100896.44
2023-03-27T12:41:57.696Z,100887.25
2023-03-27T12:47:20.550Z,100875.38
2023-03-27T12:52:22.400Z,100882.50
2023-03-27T12:57:24.291Z,100875.28
2023-03-27T13:03:05.981Z,100871.63
2023-03-27T13:08:28.828Z,100874.69
2023-03-27T13:15:00.601Z,100871.34
2023-03-27T13:25:31.849Z,100867.47
2023-03-27T13:30:46.522Z,100866.84
2023-03-27T13:36:02.849Z,100851.84
2023-03-27T13:41:43.839Z,100867.72
2023-03-27T13:46:51.377Z,100873.47
2023-03-27T13:52:21.846Z,100868.84
2023-03-27T13:57:38.712Z,100871.31
2023-03-27T14:03:24.521Z,100879.63
2023-03-27T14:08:38.293Z,100881.84
2023-03-27T14:14:02.946Z,100890.78
2023-03-27T14:19:40.212Z,100893.59
2023-03-27T14:24:46.290Z,100920.16
2023-03-27T14:29:48.089Z,100960.63
2023-03-27T14:39:55.836Z,100982.91
2023-03-27T14:45:16.397Z,100993.44
2023-03-27T14:50:19.694Z,100978.38
2023-03-27T14:55:24.061Z,100971.56
2023-03-27T15:00:27.580Z,100975.91
2023-03-27T15:05:30.579Z,100983.38
2023-03-27T15:10:32.614Z,100994.41
2023-03-27T15:15:38.302Z,100993.50
2023-03-27T15:20:41.664Z,100990.38
2023-03-27T15:25:47.109Z,100987.13
2023-03-27T15:30:53.329Z,100990.78
2023-03-27T15:35:57.180Z,100991.34
2023-03-27T15:41:02.001Z,101008.69
2023-03-27T15:46:14.938Z,101096.78
2023-03-27T15:51:30.164Z,101073.88
2023-03-27T15:56:39.760Z,101061.50
2023-03-27T16:01:48.520Z,101059.94
2023-03-27T16:06:54.418Z,101059.41
2023-03-27T16:11:57.931Z,101055.28
2023-03-27T16:17:15.390Z,101055.72
2023-03-27T16:22:23.014Z,101061.16
2023-03-27T16:27:28.275Z,101062.19
2023-03-27T16:32:30.047Z,101067.78
2023-03-27T16:37:33.236Z,101075.56
2023-03-27T16:42:34.934Z,101069.06
2023-03-27T16:47:36.747Z,101069.34
2023-03-27T16:52:39.837Z,101076.88
2023-03-27T16:57:42.309Z,101078.16
2023-03-27T17:02:44.270Z,101092.66
2023-03-27T17:07:47.554Z,101106.44
2023-03-27T17:12:49.293Z,101115.44
2023-03-27T17:17:50.967Z,101122.06
2023-03-27T17:22:54.092Z,101121.84
2023-03-27T17:27:55.732Z,101136.16
2023-03-27T17:32:57.412Z,101138.44
2023-03-27T17:38:00.677Z,101155.41
2023-03-27T17:43:02.357Z,101152.28
2023-03-27T17:48:04.015Z,101161.28
2023-03-27T17:53:07.053Z,101176.50
2023-03-27T17:58:09.733Z,101195.16
2023-03-27T18:03:11.959Z,101215.88
2023-03-27T18:08:16.584Z,101216.34
2023-03-27T18:13:19.023Z,101209.09
2023-03-27T18:18:20.935Z,101211.41
2023-03-27T18:23:24.092Z,101202.00
2023-03-27T18:28:25.722Z,101210.97
2023-03-27T18:33:27.601Z,101211.19
2023-03-27T18:38:30.720Z,101214.47
2023-03-27T18:43:32.469Z,101212.84
2023-03-27T18:48:34.593Z,101217.03
2023-03-27T18:53:37.626Z,101226.16
2023-03-27T18:58:39.261Z,101229.69
2023-03-27T19:03:40.901Z,101234.00
2023-03-27T19:08:44.181Z,101230.19
2023-03-27T19:13:45.796Z,101237.09
2023-03-27T19:18:47.399Z,101246.03
2023-03-27T19:23:50.592Z,101244.78
2023-03-27T19:28:52.256Z,101242.88
2023-03-27T19:33:53.896Z,101244.56
2023-03-27T19:38:57.292Z,101259.53
2023-03-27T19:44:00.359Z,101264.41
2023-03-27T19:49:03.054Z,101269.28
2023-03-27T19:54:06.278Z,101276.94
2023-03-27T19:59:09.821Z,101284.19
2023-03-27T20:04:14.789Z,101295.94
2023-03-27T20:09:18.081Z,101305.53
2023-03-27T20:14:20.382Z,101303.63
2023-03-27T20:19:23.685Z,101305.97
2023-03-27T20:24:27.128Z,101310.91
2023-03-27T20:29:29.177Z,101310.59
2023-03-27T20:34:31.221Z,101314.31
2023-03-27T20:39:34.687Z,101308.94
2023-03-27T20:44:36.714Z,101307.41
2023-03-27T20:49:41.561Z,101312.13
2023-03-27T20:54:45.180Z,101311.84
2023-03-27T20:59:47.711Z,101311.66
2023-03-27T21:04:49.711Z,101313.00
2023-03-27T21:09:52.777Z,101314.13
2023-03-27T21:14:54.486Z,101310.00
2023-03-27T21:19:56.166Z,101321.78
2023-03-27T21:24:59.249Z,101322.09
2023-03-27T21:30:00.876Z,101329.94
2023-03-27T21:35:02.527Z,101332.84
2023-03-27T21:40:07.117Z,101333.13
2023-03-27T21:45:09.099Z,101324.59
2023-03-27T21:50:11.212Z,101340.47
2023-03-27T21:55:14.214Z,101349.09
2023-03-27T22:00:16.329Z,101355.81
2023-03-27T22:05:18.268Z,101352.59
2023-03-27T22:10:21.262Z,101347.75
2023-03-27T22:15:22.940Z,101347.38
2023-03-27T22:20:24.579Z,101352.81
2023-03-27T22:25:27.727Z,101358.41
2023-03-27T22:30:29.489Z,101360.81
2023-03-27T22:35:31.234Z,101370.22
2023-03-27T22:40:34.219Z,101373.78
2023-03-27T22:45:36.121Z,101383.53
2023-03-27T22:50:37.767Z,101386.81
2023-03-27T22:55:40.873Z,101389.53
2023-03-27T23:00:42.617Z,101384.88
2023-03-27T23:05:46.449Z,101395.03
2023-03-27T23:10:56.322Z,101398.50
2023-03-27T23:15:58.509Z,101393.09
2023-03-27T23:21:02.271Z,101399.44
2023-03-27T23:26:07.326Z,101415.28
2023-03-27T23:31:12.598Z,101411.75
2023-03-27T23:36:16.344Z,101429.00
2023-03-27T23:41:20.058Z,101432.13
2023-03-27T23:46:21.721Z,101441.81
2023-03-27T23:51:23.478Z,101438.56
2023-03-27T23:56:26.544Z,101447.44
